sensor_id;sensor_type;location;lat;lon;timestamp;P1;durP1;ratioP1;P2;durP2;ratioP2
34144;SDS011;69555;53.014;8.886;2023-05-10T00:00:30;5.10;;;2.15;;
34144;SDS011;69555;53.014;8.886;2023-05-10T00:02:57;2.78;;;2.10;;
34144;SDS011;69555;53.014;8.886;2023-05-10T00:05:25;6.22;;;2.25;;
34144;SDS011;69555;53.014;8.886;2023-05-10T00:07:51;4.85;;;2.65;;
34144;SDS011;69555;53.014;8.886;2023-05-10T00:10:18;4.03;;;2.70;;
34144;SDS011;69555;53.014;8.886;2023-05-10T00:12:44;3.97;;;2.40;;
34144;SDS011;69555;53.014;8.886;2023-05-10T00:15:11;5.70;;;3.15;;
34144;SDS011;69555;53.014;8.886;2023-05-10T00:17:37;6.05;;;2.50;;
34144;SDS011;69555;53.014;8.886;2023-05-10T00:20:04;12.43;;;3.20;;
34144;SDS011;69555;53.014;8.886;2023-05-10T00:22:31;5.22;;;3.08;;
34144;SDS011;69555;53.014;8.886;2023-05-10T00:24:58;8.32;;;2.63;;
34144;SDS011;69555;53.014;8.886;2023-05-10T00:27:25;3.63;;;2.47;;
34144;SDS011;69555;53.014;8.886;2023-05-10T00:29:52;7.78;;;2.97;;
34144;SDS011;69555;53.014;8.886;2023-05-10T00:32:18;6.13;;;2.58;;
34144;SDS011;69555;53.014;8.886;2023-05-10T00:34:46;7.47;;;2.78;;
34144;SDS011;69555;53.014;8.886;2023-05-10T00:37:13;7.57;;;2.85;;
34144;SDS011;69555;53.014;8.886;2023-05-10T00:39:39;5.30;;;2.95;;
34144;SDS011;69555;53.014;8.886;2023-05-10T00:42:06;5.32;;;2.83;;
34144;SDS011;69555;53.014;8.886;2023-05-10T00:44:33;4.38;;;2.55;;
34144;SDS011;69555;53.014;8.886;2023-05-10T00:46:59;7.68;;;2.75;;
34144;SDS011;69555;53.014;8.886;2023-05-10T00:49:26;8.00;;;2.88;;
34144;SDS011;69555;53.014;8.886;2023-05-10T00:51:54;7.07;;;2.67;;
34144;SDS011;69555;53.014;8.886;2023-05-10T00:54:20;5.00;;;2.97;;
34144;SDS011;69555;53.014;8.886;2023-05-10T00:56:47;3.55;;;2.65;;
34144;SDS011;69555;53.014;8.886;2023-05-10T00:59:16;4.05;;;2.53;;
34144;SDS011;69555;53.014;8.886;2023-05-10T01:01:44;5.75;;;3.08;;
34144;SDS011;69555;53.014;8.886;2023-05-10T01:04:11;4.80;;;2.42;;
34144;SDS011;69555;53.014;8.886;2023-05-10T01:06:39;5.55;;;2.78;;
34144;SDS011;69555;53.014;8.886;2023-05-10T01:09:06;7.13;;;2.80;;
34144;SDS011;69555;53.014;8.886;2023-05-10T01:11:34;4.97;;;3.22;;
34144;SDS011;69555;53.014;8.886;2023-05-10T01:14:03;6.00;;;2.65;;
34144;SDS011;69555;53.014;8.886;2023-05-10T01:16:32;8.52;;;2.78;;
34144;SDS011;69555;53.014;8.886;2023-05-10T01:19:02;5.72;;;3.10;;
34144;SDS011;69555;53.014;8.886;2023-05-10T01:21:59;5.00;;;3.10;;
34144;SDS011;69555;53.014;8.886;2023-05-10T01:28:18;3.13;;;2.65;;
34144;SDS011;69555;53.014;8.886;2023-05-10T01:31:08;5.10;;;2.67;;
34144;SDS011;69555;53.014;8.886;2023-05-10T01:34:06;5.70;;;3.08;;
34144;SDS011;69555;53.014;8.886;2023-05-10T01:36:47;8.95;;;2.38;;
34144;SDS011;69555;53.014;8.886;2023-05-10T01:39:31;11.35;;;3.38;;
34144;SDS011;69555;53.014;8.886;2023-05-10T01:42:11;6.93;;;3.22;;
34144;SDS011;69555;53.014;8.886;2023-05-10T01:47:43;8.00;;;2.88;;
34144;SDS011;69555;53.014;8.886;2023-05-10T01:50:14;6.10;;;3.25;;
34144;SDS011;69555;53.014;8.886;2023-05-10T01:52:44;6.63;;;3.58;;
34144;SDS011;69555;53.014;8.886;2023-05-10T01:55:20;6.35;;;3.13;;
34144;SDS011;69555;53.014;8.886;2023-05-10T01:57:51;4.63;;;3.28;;
34144;SDS011;69555;53.014;8.886;2023-05-10T02:00:23;5.03;;;3.20;;
34144;SDS011;69555;53.014;8.886;2023-05-10T02:02:51;4.45;;;3.00;;
34144;SDS011;69555;53.014;8.886;2023-05-10T02:05:18;4.47;;;3.10;;
34144;SDS011;69555;53.014;8.886;2023-05-10T02:07:46;4.85;;;2.58;;
34144;SDS011;69555;53.014;8.886;2023-05-10T02:10:12;6.20;;;3.15;;
34144;SDS011;69555;53.014;8.886;2023-05-10T02:12:46;8.48;;;3.17;;
34144;SDS011;69555;53.014;8.886;2023-05-10T02:15:16;7.95;;;3.20;;
34144;SDS011;69555;53.014;8.886;2023-05-10T02:17:47;10.23;;;3.42;;
34144;SDS011;69555;53.014;8.886;2023-05-10T02:20:15;7.65;;;3.40;;
34144;SDS011;69555;53.014;8.886;2023-05-10T02:22:43;7.90;;;3.13;;
34144;SDS011;69555;53.014;8.886;2023-05-10T02:25:13;5.32;;;3.38;;
34144;SDS011;69555;53.014;8.886;2023-05-10T02:27:41;12.63;;;3.60;;
34144;SDS011;69555;53.014;8.886;2023-05-10T02:30:09;5.57;;;3.08;;
34144;SDS011;69555;53.014;8.886;2023-05-10T02:32:37;9.68;;;3.30;;
34144;SDS011;69555;53.014;8.886;2023-05-10T02:35:05;6.35;;;3.53;;
34144;SDS011;69555;53.014;8.886;2023-05-10T02:37:33;9.45;;;3.33;;
34144;SDS011;69555;53.014;8.886;2023-05-10T02:40:01;9.30;;;3.72;;
34144;SDS011;69555;53.014;8.886;2023-05-10T02:42:32;7.85;;;3.45;;
34144;SDS011;69555;53.014;8.886;2023-05-10T02:45:03;6.78;;;3.30;;
34144;SDS011;69555;53.014;8.886;2023-05-10T02:47:33;8.02;;;3.42;;
34144;SDS011;69555;53.014;8.886;2023-05-10T02:50:00;9.40;;;3.33;;
34144;SDS011;69555;53.014;8.886;2023-05-10T02:52:29;5.20;;;3.22;;
34144;SDS011;69555;53.014;8.886;2023-05-10T02:55:02;5.10;;;3.85;;
34144;SDS011;69555;53.014;8.886;2023-05-10T02:57:34;8.43;;;3.57;;
34144;SDS011;69555;53.014;8.886;2023-05-10T03:00:04;6.45;;;3.72;;
34144;SDS011;69555;53.014;8.886;2023-05-10T03:02:31;7.85;;;3.90;;
34144;SDS011;69555;53.014;8.886;2023-05-10T03:04:56;3.70;;;3.25;;
34144;SDS011;69555;53.014;8.886;2023-05-10T03:07:23;7.00;;;3.40;;
34144;SDS011;69555;53.014;8.886;2023-05-10T03:09:50;9.45;;;4.00;;
34144;SDS011;69555;53.014;8.886;2023-05-10T03:15:25;8.65;;;4.05;;
34144;SDS011;69555;53.014;8.886;2023-05-10T03:18:15;8.90;;;3.78;;
34144;SDS011;69555;53.014;8.886;2023-05-10T03:20:55;9.20;;;3.10;;
34144;SDS011;69555;53.014;8.886;2023-05-10T03:23:50;8.45;;;4.35;;
34144;SDS011;69555;53.014;8.886;2023-05-10T03:26:35;7.68;;;3.92;;
34144;SDS011;69555;53.014;8.886;2023-05-10T03:29:04;14.57;;;4.47;;
34144;SDS011;69555;53.014;8.886;2023-05-10T03:31:32;7.07;;;3.83;;
34144;SDS011;69555;53.014;8.886;2023-05-10T03:33:59;6.82;;;3.92;;
34144;SDS011;69555;53.014;8.886;2023-05-10T03:36:26;9.32;;;4.07;;
34144;SDS011;69555;53.014;8.886;2023-05-10T03:38:52;4.28;;;3.53;;
34144;SDS011;69555;53.014;8.886;2023-05-10T03:41:19;7.22;;;4.07;;
34144;SDS011;69555;53.014;8.886;2023-05-10T03:43:46;8.02;;;4.00;;
34144;SDS011;69555;53.014;8.886;2023-05-10T03:46:13;8.32;;;4.45;;
34144;SDS011;69555;53.014;8.886;2023-05-10T03:48:39;7.00;;;3.72;;
34144;SDS011;69555;53.014;8.886;2023-05-10T03:51:07;5.53;;;4.15;;
34144;SDS011;69555;53.014;8.886;2023-05-10T03:53:33;10.02;;;3.80;;
34144;SDS011;69555;53.014;8.886;2023-05-10T03:56:00;7.70;;;4.25;;
34144;SDS011;69555;53.014;8.886;2023-05-10T03:58:26;7.90;;;4.05;;
34144;SDS011;69555;53.014;8.886;2023-05-10T04:00:53;8.77;;;4.45;;
34144;SDS011;69555;53.014;8.886;2023-05-10T04:03:20;8.15;;;4.45;;
34144;SDS011;69555;53.014;8.886;2023-05-10T04:05:45;7.45;;;4.53;;
34144;SDS011;69555;53.014;8.886;2023-05-10T04:08:12;9.35;;;4.68;;
34144;SDS011;69555;53.014;8.886;2023-05-10T04:10:37;5.38;;;3.78;;
34144;SDS011;69555;53.014;8.886;2023-05-10T04:13:03;7.50;;;4.95;;
34144;SDS011;69555;53.014;8.886;2023-05-10T04:15:28;6.45;;;4.25;;
34144;SDS011;69555;53.014;8.886;2023-05-10T04:17:53;6.60;;;4.63;;
34144;SDS011;69555;53.014;8.886;2023-05-10T04:20:19;7.38;;;4.75;;
34144;SDS011;69555;53.014;8.886;2023-05-10T04:22:44;6.30;;;4.22;;
34144;SDS011;69555;53.014;8.886;2023-05-10T04:25:10;11.32;;;4.78;;
34144;SDS011;69555;53.014;8.886;2023-05-10T04:27:35;8.70;;;4.90;;
34144;SDS011;69555;53.014;8.886;2023-05-10T04:30:01;6.72;;;4.72;;
34144;SDS011;69555;53.014;8.886;2023-05-10T04:32:27;7.30;;;4.97;;
34144;SDS011;69555;53.014;8.886;2023-05-10T04:34:53;7.70;;;5.97;;
34144;SDS011;69555;53.014;8.886;2023-05-10T04:37:18;6.40;;;5.20;;
34144;SDS011;69555;53.014;8.886;2023-05-10T04:39:44;7.03;;;5.03;;
34144;SDS011;69555;53.014;8.886;2023-05-10T04:42:10;10.23;;;4.85;;
34144;SDS011;69555;53.014;8.886;2023-05-10T04:44:36;6.95;;;4.80;;
34144;SDS011;69555;53.014;8.886;2023-05-10T04:47:02;5.57;;;4.55;;
34144;SDS011;69555;53.014;8.886;2023-05-10T04:49:28;6.65;;;5.03;;
34144;SDS011;69555;53.014;8.886;2023-05-10T04:51:54;7.43;;;5.13;;
34144;SDS011;69555;53.014;8.886;2023-05-10T04:54:20;14.63;;;5.53;;
34144;SDS011;69555;53.014;8.886;2023-05-10T04:56:45;8.18;;;5.15;;
34144;SDS011;69555;53.014;8.886;2023-05-10T04:59:10;12.50;;;5.22;;
34144;SDS011;69555;53.014;8.886;2023-05-10T05:01:36;9.80;;;5.07;;
34144;SDS011;69555;53.014;8.886;2023-05-10T05:04:01;6.85;;;5.00;;
34144;SDS011;69555;53.014;8.886;2023-05-10T05:06:27;8.05;;;5.68;;
34144;SDS011;69555;53.014;8.886;2023-05-10T05:08:52;10.63;;;5.13;;
34144;SDS011;69555;53.014;8.886;2023-05-10T05:11:18;7.68;;;5.90;;
34144;SDS011;69555;53.014;8.886;2023-05-10T05:13:43;7.78;;;5.82;;
34144;SDS011;69555;53.014;8.886;2023-05-10T05:16:09;10.40;;;6.93;;
34144;SDS011;69555;53.014;8.886;2023-05-10T05:18:35;9.82;;;6.57;;
34144;SDS011;69555;53.014;8.886;2023-05-10T05:21:01;8.65;;;6.60;;
34144;SDS011;69555;53.014;8.886;2023-05-10T05:23:26;13.25;;;6.70;;
34144;SDS011;69555;53.014;8.886;2023-05-10T05:25:52;8.68;;;6.18;;
34144;SDS011;69555;53.014;8.886;2023-05-10T05:28:18;8.75;;;6.72;;
34144;SDS011;69555;53.014;8.886;2023-05-10T05:30:44;10.77;;;6.93;;
34144;SDS011;69555;53.014;8.886;2023-05-10T05:33:09;9.35;;;7.00;;
34144;SDS011;69555;53.014;8.886;2023-05-10T05:35:35;10.52;;;7.85;;
34144;SDS011;69555;53.014;8.886;2023-05-10T05:38:01;15.48;;;7.43;;
34144;SDS011;69555;53.014;8.886;2023-05-10T05:40:26;11.18;;;7.03;;
34144;SDS011;69555;53.014;8.886;2023-05-10T05:42:51;9.13;;;6.57;;
34144;SDS011;69555;53.014;8.886;2023-05-10T05:45:17;10.65;;;6.30;;
34144;SDS011;69555;53.014;8.886;2023-05-10T05:47:42;11.02;;;7.45;;
34144;SDS011;69555;53.014;8.886;2023-05-10T05:50:08;10.90;;;7.20;;
34144;SDS011;69555;53.014;8.886;2023-05-10T05:52:34;11.63;;;7.22;;
34144;SDS011;69555;53.014;8.886;2023-05-10T05:54:59;11.55;;;7.38;;
34144;SDS011;69555;53.014;8.886;2023-05-10T05:57:25;10.00;;;7.60;;
34144;SDS011;69555;53.014;8.886;2023-05-10T05:59:51;13.73;;;8.73;;
34144;SDS011;69555;53.014;8.886;2023-05-10T06:02:17;13.85;;;8.60;;
34144;SDS011;69555;53.014;8.886;2023-05-10T06:04:42;10.68;;;7.30;;
34144;SDS011;69555;53.014;8.886;2023-05-10T06:07:07;13.98;;;7.90;;
34144;SDS011;69555;53.014;8.886;2023-05-10T06:09:33;11.55;;;7.95;;
34144;SDS011;69555;53.014;8.886;2023-05-10T06:11:58;14.55;;;8.85;;
34144;SDS011;69555;53.014;8.886;2023-05-10T06:14:24;13.05;;;7.95;;
34144;SDS011;69555;53.014;8.886;2023-05-10T06:16:49;14.02;;;9.30;;
34144;SDS011;69555;53.014;8.886;2023-05-10T06:19:15;13.32;;;9.55;;
34144;SDS011;69555;53.014;8.886;2023-05-10T06:21:40;13.05;;;8.73;;
34144;SDS011;69555;53.014;8.886;2023-05-10T06:24:06;10.02;;;8.15;;
34144;SDS011;69555;53.014;8.886;2023-05-10T06:26:31;14.52;;;8.98;;
34144;SDS011;69555;53.014;8.886;2023-05-10T06:28:57;14.82;;;9.18;;
34144;SDS011;69555;53.014;8.886;2023-05-10T06:31:23;16.00;;;8.73;;
34144;SDS011;69555;53.014;8.886;2023-05-10T06:33:48;11.77;;;9.27;;
34144;SDS011;69555;53.014;8.886;2023-05-10T06:36:13;15.68;;;9.30;;
34144;SDS011;69555;53.014;8.886;2023-05-10T06:38:39;13.48;;;8.75;;
34144;SDS011;69555;53.014;8.886;2023-05-10T06:41:04;13.65;;;10.52;;
34144;SDS011;69555;53.014;8.886;2023-05-10T06:43:30;16.20;;;9.98;;
34144;SDS011;69555;53.014;8.886;2023-05-10T06:45:56;15.23;;;9.60;;
34144;SDS011;69555;53.014;8.886;2023-05-10T06:48:23;12.55;;;9.35;;
34144;SDS011;69555;53.014;8.886;2023-05-10T06:50:49;16.27;;;9.80;;
34144;SDS011;69555;53.014;8.886;2023-05-10T06:53:16;16.38;;;11.73;;
34144;SDS011;69555;53.014;8.886;2023-05-10T06:55:43;18.35;;;11.25;;
34144;SDS011;69555;53.014;8.886;2023-05-10T06:58:10;15.95;;;11.13;;
34144;SDS011;69555;53.014;8.886;2023-05-10T07:00:36;15.38;;;10.85;;
34144;SDS011;69555;53.014;8.886;2023-05-10T07:03:06;18.20;;;10.75;;
34144;SDS011;69555;53.014;8.886;2023-05-10T07:05:32;18.33;;;11.20;;
34144;SDS011;69555;53.014;8.886;2023-05-10T07:07:57;17.10;;;10.52;;
34144;SDS011;69555;53.014;8.886;2023-05-10T07:10:22;13.75;;;10.82;;
34144;SDS011;69555;53.014;8.886;2023-05-10T07:12:48;14.40;;;11.00;;
34144;SDS011;69555;53.014;8.886;2023-05-10T07:15:14;17.45;;;11.23;;
34144;SDS011;69555;53.014;8.886;2023-05-10T07:17:42;15.23;;;11.85;;
34144;SDS011;69555;53.014;8.886;2023-05-10T07:20:08;14.63;;;10.35;;
34144;SDS011;69555;53.014;8.886;2023-05-10T07:22:34;14.25;;;11.23;;
34144;SDS011;69555;53.014;8.886;2023-05-10T07:24:59;14.63;;;10.55;;
34144;SDS011;69555;53.014;8.886;2023-05-10T07:27:25;12.02;;;10.48;;
34144;SDS011;69555;53.014;8.886;2023-05-10T07:29:50;13.30;;;10.60;;
34144;SDS011;69555;53.014;8.886;2023-05-10T07:32:15;18.73;;;10.80;;
34144;SDS011;69555;53.014;8.886;2023-05-10T07:34:41;12.32;;;10.15;;
34144;SDS011;69555;53.014;8.886;2023-05-10T07:37:06;16.30;;;10.95;;
34144;SDS011;69555;53.014;8.886;2023-05-10T07:39:32;12.93;;;10.55;;
34144;SDS011;69555;53.014;8.886;2023-05-10T07:41:57;13.77;;;10.32;;
34144;SDS011;69555;53.014;8.886;2023-05-10T07:44:23;11.57;;;9.85;;
34144;SDS011;69555;53.014;8.886;2023-05-10T07:46:49;12.82;;;9.82;;
34144;SDS011;69555;53.014;8.886;2023-05-10T07:49:14;12.90;;;11.30;;
34144;SDS011;69555;53.014;8.886;2023-05-10T07:51:41;14.30;;;11.57;;
34144;SDS011;69555;53.014;8.886;2023-05-10T07:54:08;14.90;;;10.50;;
34144;SDS011;69555;53.014;8.886;2023-05-10T07:56:35;11.85;;;9.50;;
34144;SDS011;69555;53.014;8.886;2023-05-10T07:59:02;10.73;;;8.63;;
34144;SDS011;69555;53.014;8.886;2023-05-10T08:01:35;11.07;;;9.30;;
34144;SDS011;69555;53.014;8.886;2023-05-10T08:04:02;11.38;;;9.30;;
34144;SDS011;69555;53.014;8.886;2023-05-10T08:06:28;10.27;;;8.50;;
34144;SDS011;69555;53.014;8.886;2023-05-10T08:08:56;12.75;;;8.75;;
34144;SDS011;69555;53.014;8.886;2023-05-10T08:11:23;8.48;;;5.65;;
34144;SDS011;69555;53.014;8.886;2023-05-10T08:13:50;5.68;;;4.93;;
34144;SDS011;69555;53.014;8.886;2023-05-10T08:16:17;5.22;;;3.70;;
34144;SDS011;69555;53.014;8.886;2023-05-10T08:18:44;5.72;;;4.35;;
34144;SDS011;69555;53.014;8.886;2023-05-10T08:21:13;4.95;;;4.20;;
34144;SDS011;69555;53.014;8.886;2023-05-10T08:23:40;5.05;;;4.15;;
34144;SDS011;69555;53.014;8.886;2023-05-10T08:26:07;5.90;;;5.28;;
34144;SDS011;69555;53.014;8.886;2023-05-10T08:28:34;6.72;;;5.43;;
34144;SDS011;69555;53.014;8.886;2023-05-10T08:31:00;6.22;;;5.63;;
34144;SDS011;69555;53.014;8.886;2023-05-10T08:33:26;8.05;;;6.53;;
34144;SDS011;69555;53.014;8.886;2023-05-10T08:35:53;6.63;;;5.85;;
34144;SDS011;69555;53.014;8.886;2023-05-10T08:38:19;6.57;;;5.97;;
34144;SDS011;69555;53.014;8.886;2023-05-10T08:40:46;5.93;;;5.32;;
34144;SDS011;69555;53.014;8.886;2023-05-10T08:43:16;4.88;;;4.47;;
34144;SDS011;69555;53.014;8.886;2023-05-10T08:45:44;4.72;;;4.32;;
34144;SDS011;69555;53.014;8.886;2023-05-10T08:50:44;4.18;;;3.67;;
34144;SDS011;69555;53.014;8.886;2023-05-10T08:53:13;4.28;;;3.50;;
34144;SDS011;69555;53.014;8.886;2023-05-10T08:55:40;3.90;;;3.33;;
34144;SDS011;69555;53.014;8.886;2023-05-10T08:58:09;4.22;;;3.55;;
34144;SDS011;69555;53.014;8.886;2023-05-10T09:00:36;3.30;;;2.40;;
34144;SDS011;69555;53.014;8.886;2023-05-10T09:03:05;4.32;;;2.83;;
34144;SDS011;69555;53.014;8.886;2023-05-10T09:05:31;4.78;;;3.58;;
34144;SDS011;69555;53.014;8.886;2023-05-10T09:07:56;5.13;;;3.55;;
34144;SDS011;69555;53.014;8.886;2023-05-10T09:10:23;2.50;;;2.30;;
34144;SDS011;69555;53.014;8.886;2023-05-10T09:12:52;2.47;;;2.22;;
34144;SDS011;69555;53.014;8.886;2023-05-10T09:15:20;5.90;;;2.50;;
34144;SDS011;69555;53.014;8.886;2023-05-10T09:17:46;2.88;;;2.33;;
34144;SDS011;69555;53.014;8.886;2023-05-10T09:20:14;3.40;;;2.65;;
34144;SDS011;69555;53.014;8.886;2023-05-10T09:22:39;4.95;;;2.45;;
34144;SDS011;69555;53.014;8.886;2023-05-10T09:27:35;3.75;;;2.22;;
34144;SDS011;69555;53.014;8.886;2023-05-10T09:30:02;4.13;;;2.70;;
34144;SDS011;69555;53.014;8.886;2023-05-10T09:32:42;2.95;;;2.65;;
34144;SDS011;69555;53.014;8.886;2023-05-10T09:35:12;7.63;;;2.63;;
34144;SDS011;69555;53.014;8.886;2023-05-10T09:37:43;4.45;;;3.47;;
34144;SDS011;69555;53.014;8.886;2023-05-10T09:40:11;5.13;;;3.97;;
34144;SDS011;69555;53.014;8.886;2023-05-10T09:42:38;4.47;;;3.63;;
34144;SDS011;69555;53.014;8.886;2023-05-10T09:45:04;6.18;;;4.50;;
34144;SDS011;69555;53.014;8.886;2023-05-10T09:47:36;8.10;;;4.50;;
34144;SDS011;69555;53.014;8.886;2023-05-10T09:50:02;5.93;;;4.53;;
34144;SDS011;69555;53.014;8.886;2023-05-10T09:55:16;6.45;;;4.05;;
34144;SDS011;69555;53.014;8.886;2023-05-10T09:57:42;5.22;;;3.78;;
34144;SDS011;69555;53.014;8.886;2023-05-10T10:00:08;5.35;;;3.97;;
34144;SDS011;69555;53.014;8.886;2023-05-10T10:02:37;4.53;;;3.78;;
34144;SDS011;69555;53.014;8.886;2023-05-10T10:05:04;7.50;;;3.17;;
34144;SDS011;69555;53.014;8.886;2023-05-10T10:07:31;5.32;;;3.70;;
34144;SDS011;69555;53.014;8.886;2023-05-10T10:09:58;4.28;;;3.40;;
34144;SDS011;69555;53.014;8.886;2023-05-10T10:12:24;8.13;;;3.53;;
34144;SDS011;69555;53.014;8.886;2023-05-10T10:14:51;4.35;;;3.28;;
34144;SDS011;69555;53.014;8.886;2023-05-10T10:17:19;7.38;;;3.70;;
34144;SDS011;69555;53.014;8.886;2023-05-10T10:19:47;4.72;;;4.20;;
34144;SDS011;69555;53.014;8.886;2023-05-10T10:22:14;4.97;;;3.00;;
34144;SDS011;69555;53.014;8.886;2023-05-10T10:24:41;2.65;;;2.45;;
34144;SDS011;69555;53.014;8.886;2023-05-10T10:30:30;6.32;;;3.08;;
34144;SDS011;69555;53.014;8.886;2023-05-10T10:36:03;8.50;;;4.63;;
34144;SDS011;69555;53.014;8.886;2023-05-10T10:38:36;7.78;;;3.75;;
34144;SDS011;69555;53.014;8.886;2023-05-10T10:41:34;5.25;;;3.33;;
34144;SDS011;69555;53.014;8.886;2023-05-10T10:50:08;8.27;;;3.38;;
34144;SDS011;69555;53.014;8.886;2023-05-10T10:52:38;5.85;;;3.17;;
34144;SDS011;69555;53.014;8.886;2023-05-10T10:55:11;4.78;;;3.75;;
34144;SDS011;69555;53.014;8.886;2023-05-10T10:57:52;3.92;;;3.25;;
34144;SDS011;69555;53.014;8.886;2023-05-10T11:00:32;3.97;;;3.10;;
34144;SDS011;69555;53.014;8.886;2023-05-10T11:05:47;4.03;;;2.40;;
34144;SDS011;69555;53.014;8.886;2023-05-10T11:08:25;2.90;;;2.08;;
34144;SDS011;69555;53.014;8.886;2023-05-10T11:13:28;5.30;;;2.38;;
34144;SDS011;69555;53.014;8.886;2023-05-10T11:15:55;5.35;;;3.00;;
34144;SDS011;69555;53.014;8.886;2023-05-10T11:18:26;4.68;;;2.40;;
34144;SDS011;69555;53.014;8.886;2023-05-10T11:26:12;5.28;;;3.30;;
34144;SDS011;69555;53.014;8.886;2023-05-10T11:28:41;3.38;;;3.08;;
34144;SDS011;69555;53.014;8.886;2023-05-10T11:31:08;5.35;;;2.03;;
34144;SDS011;69555;53.014;8.886;2023-05-10T11:33:53;2.50;;;2.03;;
34144;SDS011;69555;53.014;8.886;2023-05-10T11:36:20;2.55;;;2.08;;
34144;SDS011;69555;53.014;8.886;2023-05-10T11:38:48;2.13;;;1.75;;
34144;SDS011;69555;53.014;8.886;2023-05-10T11:41:14;2.75;;;2.55;;
34144;SDS011;69555;53.014;8.886;2023-05-10T11:43:42;1.90;;;1.73;;
34144;SDS011;69555;53.014;8.886;2023-05-10T11:46:08;2.28;;;2.08;;
34144;SDS011;69555;53.014;8.886;2023-05-10T11:48:36;3.60;;;2.00;;
34144;SDS011;69555;53.014;8.886;2023-05-10T11:51:03;2.83;;;2.30;;
34144;SDS011;69555;53.014;8.886;2023-05-10T11:53:29;2.05;;;1.80;;
34144;SDS011;69555;53.014;8.886;2023-05-10T11:56:02;2.65;;;1.50;;
34144;SDS011;69555;53.014;8.886;2023-05-10T11:58:32;2.28;;;1.15;;
34144;SDS011;69555;53.014;8.886;2023-05-10T12:00:58;1.35;;;1.25;;
34144;SDS011;69555;53.014;8.886;2023-05-10T12:03:24;3.10;;;1.63;;
34144;SDS011;69555;53.014;8.886;2023-05-10T12:05:50;1.23;;;1.13;;
34144;SDS011;69555;53.014;8.886;2023-05-10T12:08:19;1.17;;;1.08;;
34144;SDS011;69555;53.014;8.886;2023-05-10T12:11:03;2.22;;;1.00;;
34144;SDS011;69555;53.014;8.886;2023-05-10T12:13:38;0.75;;;0.40;;
34144;SDS011;69555;53.014;8.886;2023-05-10T12:18:50;0.55;;;0.55;;
34144;SDS011;69555;53.014;8.886;2023-05-10T12:21:17;0.60;;;0.60;;
34144;SDS011;69555;53.014;8.886;2023-05-10T12:23:45;0.80;;;0.57;;
34144;SDS011;69555;53.014;8.886;2023-05-10T12:26:11;0.80;;;0.70;;
34144;SDS011;69555;53.014;8.886;2023-05-10T12:28:37;0.85;;;0.80;;
34144;SDS011;69555;53.014;8.886;2023-05-10T12:31:04;1.10;;;1.00;;
34144;SDS011;69555;53.014;8.886;2023-05-10T12:33:41;0.98;;;0.80;;
34144;SDS011;69555;53.014;8.886;2023-05-10T12:36:08;1.60;;;0.95;;
34144;SDS011;69555;53.014;8.886;2023-05-10T12:38:35;2.53;;;1.17;;
34144;SDS011;69555;53.014;8.886;2023-05-10T12:41:07;1.63;;;0.80;;
34144;SDS011;69555;53.014;8.886;2023-05-10T12:43:37;0.43;;;0.43;;
34144;SDS011;69555;53.014;8.886;2023-05-10T12:46:04;0.50;;;0.38;;
34144;SDS011;69555;53.014;8.886;2023-05-10T12:48:34;0.40;;;0.40;;
34144;SDS011;69555;53.014;8.886;2023-05-10T12:51:01;1.65;;;0.50;;
34144;SDS011;69555;53.014;8.886;2023-05-10T12:53:27;2.63;;;1.48;;
34144;SDS011;69555;53.014;8.886;2023-05-10T12:55:52;1.63;;;0.50;;
34144;SDS011;69555;53.014;8.886;2023-05-10T12:58:18;0.50;;;0.50;;
34144;SDS011;69555;53.014;8.886;2023-05-10T13:00:44;0.77;;;0.77;;
34144;SDS011;69555;53.014;8.886;2023-05-10T13:03:10;1.05;;;0.57;;
34144;SDS011;69555;53.014;8.886;2023-05-10T13:05:36;2.35;;;0.50;;
34144;SDS011;69555;53.014;8.886;2023-05-10T13:08:01;4.55;;;0.90;;
34144;SDS011;69555;53.014;8.886;2023-05-10T13:10:28;3.42;;;0.50;;
34144;SDS011;69555;53.014;8.886;2023-05-10T13:12:55;3.40;;;0.47;;
34144;SDS011;69555;53.014;8.886;2023-05-10T13:15:20;0.88;;;0.32;;
34144;SDS011;69555;53.014;8.886;2023-05-10T13:17:46;1.13;;;0.70;;
34144;SDS011;69555;53.014;8.886;2023-05-10T13:20:11;0.70;;;0.70;;
34144;SDS011;69555;53.014;8.886;2023-05-10T13:22:36;2.83;;;1.00;;
34144;SDS011;69555;53.014;8.886;2023-05-10T13:25:02;2.63;;;1.13;;
34144;SDS011;69555;53.014;8.886;2023-05-10T13:27:27;2.83;;;0.90;;
34144;SDS011;69555;53.014;8.886;2023-05-10T13:29:53;2.85;;;1.67;;
34144;SDS011;69555;53.014;8.886;2023-05-10T13:32:19;1.10;;;0.68;;
34144;SDS011;69555;53.014;8.886;2023-05-10T13:34:45;1.42;;;0.80;;
34144;SDS011;69555;53.014;8.886;2023-05-10T13:37:10;0.80;;;0.80;;
34144;SDS011;69555;53.014;8.886;2023-05-10T13:39:36;1.38;;;0.77;;
34144;SDS011;69555;53.014;8.886;2023-05-10T13:42:02;1.05;;;0.77;;
34144;SDS011;69555;53.014;8.886;2023-05-10T13:44:28;0.85;;;0.85;;
34144;SDS011;69555;53.014;8.886;2023-05-10T13:46:54;2.33;;;0.80;;
34144;SDS011;69555;53.014;8.886;2023-05-10T13:49:20;1.17;;;0.90;;
34144;SDS011;69555;53.014;8.886;2023-05-10T13:51:46;1.50;;;1.05;;
34144;SDS011;69555;53.014;8.886;2023-05-10T13:54:11;1.20;;;1.10;;
34144;SDS011;69555;53.014;8.886;2023-05-10T13:56:37;1.42;;;1.00;;
34144;SDS011;69555;53.014;8.886;2023-05-10T13:59:02;1.52;;;1.30;;
34144;SDS011;69555;53.014;8.886;2023-05-10T14:01:28;4.00;;;1.60;;
34144;SDS011;69555;53.014;8.886;2023-05-10T14:03:55;2.47;;;1.67;;
34144;SDS011;69555;53.014;8.886;2023-05-10T14:06:21;1.67;;;1.45;;
34144;SDS011;69555;53.014;8.886;2023-05-10T14:08:47;1.95;;;1.33;;
34144;SDS011;69555;53.014;8.886;2023-05-10T14:11:12;3.08;;;1.92;;
34144;SDS011;69555;53.014;8.886;2023-05-10T14:13:38;2.40;;;1.85;;
34144;SDS011;69555;53.014;8.886;2023-05-10T14:16:04;1.77;;;1.60;;
34144;SDS011;69555;53.014;8.886;2023-05-10T14:18:29;3.17;;;1.48;;
34144;SDS011;69555;53.014;8.886;2023-05-10T14:20:55;2.20;;;1.55;;
34144;SDS011;69555;53.014;8.886;2023-05-10T14:23:21;1.40;;;1.30;;
34144;SDS011;69555;53.014;8.886;2023-05-10T14:25:51;7.78;;;1.95;;
34144;SDS011;69555;53.014;8.886;2023-05-10T14:28:17;1.50;;;1.40;;
34144;SDS011;69555;53.014;8.886;2023-05-10T14:30:45;1.80;;;1.33;;
34144;SDS011;69555;53.014;8.886;2023-05-10T14:33:11;1.92;;;1.73;;
34144;SDS011;69555;53.014;8.886;2023-05-10T14:35:37;3.55;;;1.83;;
34144;SDS011;69555;53.014;8.886;2023-05-10T14:38:02;2.13;;;1.80;;
34144;SDS011;69555;53.014;8.886;2023-05-10T14:40:28;3.95;;;1.67;;
34144;SDS011;69555;53.014;8.886;2023-05-10T14:42:54;1.92;;;1.80;;
34144;SDS011;69555;53.014;8.886;2023-05-10T14:45:20;2.15;;;1.95;;
34144;SDS011;69555;53.014;8.886;2023-05-10T14:47:46;4.38;;;2.10;;
34144;SDS011;69555;53.014;8.886;2023-05-10T14:50:11;3.05;;;1.92;;
34144;SDS011;69555;53.014;8.886;2023-05-10T14:52:36;1.45;;;1.35;;
34144;SDS011;69555;53.014;8.886;2023-05-10T14:55:02;2.92;;;1.35;;
34144;SDS011;69555;53.014;8.886;2023-05-10T14:57:27;1.40;;;1.30;;
34144;SDS011;69555;53.014;8.886;2023-05-10T14:59:54;1.40;;;1.27;;
34144;SDS011;69555;53.014;8.886;2023-05-10T15:02:21;2.10;;;1.70;;
34144;SDS011;69555;53.014;8.886;2023-05-10T15:04:46;2.92;;;1.60;;
34144;SDS011;69555;53.014;8.886;2023-05-10T15:07:12;3.60;;;2.00;;
34144;SDS011;69555;53.014;8.886;2023-05-10T15:09:39;1.80;;;1.42;;
34144;SDS011;69555;53.014;8.886;2023-05-10T15:12:05;2.22;;;1.70;;
34144;SDS011;69555;53.014;8.886;2023-05-10T15:14:30;1.60;;;1.25;;
34144;SDS011;69555;53.014;8.886;2023-05-10T15:16:56;1.35;;;0.85;;
34144;SDS011;69555;53.014;8.886;2023-05-10T15:19:21;1.38;;;1.20;;
34144;SDS011;69555;53.014;8.886;2023-05-10T15:21:47;1.60;;;1.50;;
34144;SDS011;69555;53.014;8.886;2023-05-10T15:24:12;1.83;;;1.65;;
34144;SDS011;69555;53.014;8.886;2023-05-10T15:26:38;1.60;;;1.13;;
34144;SDS011;69555;53.014;8.886;2023-05-10T15:29:03;2.00;;;1.60;;